sensor_id;sensor_type;location;lat;lon;timestamp;P1;durP1;ratioP1;P2;durP2;ratioP2
11422;SDS011;5768;51.476;7.210;2023-12-14T00:02:25;12.00;;;10.70;;
11422;SDS011;5768;51.476;7.210;2023-12-14T00:07:28;11.50;;;9.90;;
11422;SDS011;5768;51.476;7.210;2023-12-14T00:12:30;11.60;;;10.10;;
11422;SDS011;5768;51.476;7.210;2023-12-14T00:17:33;13.63;;;11.10;;
11422;SDS011;5768;51.476;7.210;2023-12-14T00:22:36;16.17;;;12.80;;
11422;SDS011;5768;51.476;7.210;2023-12-14T00:32:55;14.93;;;12.23;;
11422;SDS011;5768;51.476;7.210;2023-12-14T00:37:59;14.33;;;11.27;;
11422;SDS011;5768;51.476;7.210;2023-12-14T00:43:01;10.23;;;9.13;;
11422;SDS011;5768;51.476;7.210;2023-12-14T00:48:03;10.13;;;9.13;;
11422;SDS011;5768;51.476;7.210;2023-12-14T00:53:08;8.73;;;7.90;;
11422;SDS011;5768;51.476;7.210;2023-12-14T00:58:10;8.40;;;7.60;;
11422;SDS011;5768;51.476;7.210;2023-12-14T01:03:13;8.83;;;7.97;;
11422;SDS011;5768;51.476;7.210;2023-12-14T01:08:16;8.10;;;6.93;;
11422;SDS011;5768;51.476;7.210;2023-12-14T01:13:19;6.60;;;6.00;;
11422;SDS011;5768;51.476;7.210;2023-12-14T01:18:21;6.57;;;5.97;;
11422;SDS011;5768;51.476;7.210;2023-12-14T01:23:26;5.80;;;5.30;;
11422;SDS011;5768;51.476;7.210;2023-12-14T01:28:28;6.23;;;5.63;;
11422;SDS011;5768;51.476;7.210;2023-12-14T01:33:30;5.50;;;5.07;;
11422;SDS011;5768;51.476;7.210;2023-12-14T01:38:34;5.77;;;5.27;;
11422;SDS011;5768;51.476;7.210;2023-12-14T01:43:36;5.33;;;4.90;;
11422;SDS011;5768;51.476;7.210;2023-12-14T01:48:38;6.27;;;5.67;;
11422;SDS011;5768;51.476;7.210;2023-12-14T01:53:42;6.17;;;5.67;;
11422;SDS011;5768;51.476;7.210;2023-12-14T01:58:44;6.90;;;6.30;;
11422;SDS011;5768;51.476;7.210;2023-12-14T02:03:46;6.90;;;6.30;;
11422;SDS011;5768;51.476;7.210;2023-12-14T02:08:55;7.90;;;7.20;;
11422;SDS011;5768;51.476;7.210;2023-12-14T02:13:57;8.67;;;7.83;;
11422;SDS011;5768;51.476;7.210;2023-12-14T02:19:04;9.33;;;8.43;;
11422;SDS011;5768;51.476;7.210;2023-12-14T02:24:08;9.17;;;8.07;;
11422;SDS011;5768;51.476;7.210;2023-12-14T02:29:10;9.50;;;8.60;;
11422;SDS011;5768;51.476;7.210;2023-12-14T02:34:13;9.93;;;9.03;;
11422;SDS011;5768;51.476;7.210;2023-12-14T02:39:17;10.60;;;9.50;;
11422;SDS011;5768;51.476;7.210;2023-12-14T02:44:19;11.20;;;9.13;;
11422;SDS011;5768;51.476;7.210;2023-12-14T02:49:21;10.03;;;9.00;;
11422;SDS011;5768;51.476;7.210;2023-12-14T02:54:25;9.87;;;8.87;;
11422;SDS011;5768;51.476;7.210;2023-12-14T02:59:27;9.50;;;8.47;;
11422;SDS011;5768;51.476;7.210;2023-12-14T03:04:30;11.00;;;9.90;;
11422;SDS011;5768;51.476;7.210;2023-12-14T03:09:38;9.97;;;8.97;;
11422;SDS011;5768;51.476;7.210;2023-12-14T03:14:43;9.27;;;8.37;;
11422;SDS011;5768;51.476;7.210;2023-12-14T03:19:45;10.53;;;8.80;;
11422;SDS011;5768;51.476;7.210;2023-12-14T03:24:49;10.40;;;9.30;;
11422;SDS011;5768;51.476;7.210;2023-12-14T03:29:51;9.23;;;8.33;;
11422;SDS011;5768;51.476;7.210;2023-12-14T03:34:54;10.57;;;9.47;;
11422;SDS011;5768;51.476;7.210;2023-12-14T03:40:00;11.40;;;9.23;;
11422;SDS011;5768;51.476;7.210;2023-12-14T03:45:04;11.10;;;9.97;;
11422;SDS011;5768;51.476;7.210;2023-12-14T03:50:10;12.03;;;9.73;;
11422;SDS011;5768;51.476;7.210;2023-12-14T03:55:15;11.00;;;9.30;;
11422;SDS011;5768;51.476;7.210;2023-12-14T04:00:17;9.13;;;8.20;;
11422;SDS011;5768;51.476;7.210;2023-12-14T04:05:19;10.57;;;8.80;;
11422;SDS011;5768;51.476;7.210;2023-12-14T04:10:23;10.07;;;9.07;;
11422;SDS011;5768;51.476;7.210;2023-12-14T04:15:26;8.90;;;7.93;;
11422;SDS011;5768;51.476;7.210;2023-12-14T04:20:28;9.77;;;8.77;;
11422;SDS011;5768;51.476;7.210;2023-12-14T04:25:31;9.30;;;8.30;;
11422;SDS011;5768;51.476;7.210;2023-12-14T04:30:34;9.07;;;8.17;;
11422;SDS011;5768;51.476;7.210;2023-12-14T04:35:36;8.17;;;7.40;;
11422;SDS011;5768;51.476;7.210;2023-12-14T04:40:40;8.43;;;7.63;;
11422;SDS011;5768;51.476;7.210;2023-12-14T04:45:45;7.20;;;6.50;;
11422;SDS011;5768;51.476;7.210;2023-12-14T04:50:47;6.70;;;6.00;;
11422;SDS011;5768;51.476;7.210;2023-12-14T04:55:53;6.80;;;6.20;;
11422;SDS011;5768;51.476;7.210;2023-12-14T05:00:56;6.87;;;6.17;;
11422;SDS011;5768;51.476;7.210;2023-12-14T05:05:58;7.17;;;6.43;;
11422;SDS011;5768;51.476;7.210;2023-12-14T05:11:01;6.77;;;6.07;;
11422;SDS011;5768;51.476;7.210;2023-12-14T05:16:04;7.57;;;6.77;;
11422;SDS011;5768;51.476;7.210;2023-12-14T05:21:07;7.73;;;6.93;;
11422;SDS011;5768;51.476;7.210;2023-12-14T05:26:11;9.97;;;8.43;;
11422;SDS011;5768;51.476;7.210;2023-12-14T05:31:13;9.97;;;8.23;;
11422;SDS011;5768;51.476;7.210;2023-12-14T05:36:15;9.40;;;8.10;;
11422;SDS011;5768;51.476;7.210;2023-12-14T05:41:19;8.73;;;7.83;;
11422;SDS011;5768;51.476;7.210;2023-12-14T05:46:21;8.70;;;7.80;;
11422;SDS011;5768;51.476;7.210;2023-12-14T05:51:28;8.10;;;7.30;;
11422;SDS011;5768;51.476;7.210;2023-12-14T05:56:32;7.90;;;7.10;;
11422;SDS011;5768;51.476;7.210;2023-12-14T06:01:34;8.57;;;7.80;;
11422;SDS011;5768;51.476;7.210;2023-12-14T06:06:37;9.40;;;8.40;;
11422;SDS011;5768;51.476;7.210;2023-12-14T06:11:41;8.70;;;7.80;;
11422;SDS011;5768;51.476;7.210;2023-12-14T06:16:43;9.17;;;8.37;;
11422;SDS011;5768;51.476;7.210;2023-12-14T06:21:45;10.53;;;9.13;;
11422;SDS011;5768;51.476;7.210;2023-12-14T06:26:49;10.77;;;9.67;;
11422;SDS011;5768;51.476;7.210;2023-12-14T06:31:51;10.30;;;9.20;;
11422;SDS011;5768;51.476;7.210;2023-12-14T06:36:54;11.90;;;9.77;;
11422;SDS011;5768;51.476;7.210;2023-12-14T06:41:59;11.13;;;9.87;;
11422;SDS011;5768;51.476;7.210;2023-12-14T06:47:01;11.77;;;10.07;;
11422;SDS011;5768;51.476;7.210;2023-12-14T06:52:04;11.70;;;10.07;;
11422;SDS011;5768;51.476;7.210;2023-12-14T06:57:08;10.77;;;9.67;;
11422;SDS011;5768;51.476;7.210;2023-12-14T07:02:10;11.00;;;9.47;;
11422;SDS011;5768;51.476;7.210;2023-12-14T07:07:12;10.87;;;8.70;;
11422;SDS011;5768;51.476;7.210;2023-12-14T07:12:16;10.40;;;9.40;;
11422;SDS011;5768;51.476;7.210;2023-12-14T07:17:18;12.27;;;8.50;;
11422;SDS011;5768;51.476;7.210;2023-12-14T07:22:20;10.60;;;9.50;;
11422;SDS011;5768;51.476;7.210;2023-12-14T07:27:24;11.80;;;9.57;;
11422;SDS011;5768;51.476;7.210;2023-12-14T07:32:27;12.23;;;9.70;;
11422;SDS011;5768;51.476;7.210;2023-12-14T07:37:29;9.30;;;8.40;;
11422;SDS011;5768;51.476;7.210;2023-12-14T07:42:33;9.87;;;8.87;;
11422;SDS011;5768;51.476;7.210;2023-12-14T07:47:36;9.00;;;8.07;;
11422;SDS011;5768;51.476;7.210;2023-12-14T07:52:38;8.97;;;8.07;;
11422;SDS011;5768;51.476;7.210;2023-12-14T07:57:42;8.97;;;8.07;;
11422;SDS011;5768;51.476;7.210;2023-12-14T08:02:44;8.70;;;7.80;;
11422;SDS011;5768;51.476;7.210;2023-12-14T08:07:47;13.30;;;12.00;;
11422;SDS011;5768;51.476;7.210;2023-12-14T08:12:53;8.67;;;7.93;;
11422;SDS011;5768;51.476;7.210;2023-12-14T08:17:55;9.17;;;7.47;;
11422;SDS011;5768;51.476;7.210;2023-12-14T08:22:58;8.77;;;7.97;;
11422;SDS011;5768;51.476;7.210;2023-12-14T08:28:01;9.27;;;8.37;;
11422;SDS011;5768;51.476;7.210;2023-12-14T08:33:04;9.27;;;8.37;;
11422;SDS011;5768;51.476;7.210;2023-12-14T08:38:06;8.87;;;7.97;;
11422;SDS011;5768;51.476;7.210;2023-12-14T08:43:10;8.87;;;8.03;;
11422;SDS011;5768;51.476;7.210;2023-12-14T08:48:12;9.87;;;8.90;;
11422;SDS011;5768;51.476;7.210;2023-12-14T08:53:14;9.90;;;8.80;;
11422;SDS011;5768;51.476;7.210;2023-12-14T08:58:18;11.03;;;9.37;;
11422;SDS011;5768;51.476;7.210;2023-12-14T09:03:20;10.87;;;9.77;;
11422;SDS011;5768;51.476;7.210;2023-12-14T09:08:23;11.70;;;9.80;;
11422;SDS011;5768;51.476;7.210;2023-12-14T09:13:26;11.93;;;10.57;;
11422;SDS011;5768;51.476;7.210;2023-12-14T09:18:28;14.47;;;12.20;;
11422;SDS011;5768;51.476;7.210;2023-12-14T09:23:31;13.33;;;11.77;;
11422;SDS011;5768;51.476;7.210;2023-12-14T09:28:35;16.63;;;12.67;;
11422;SDS011;5768;51.476;7.210;2023-12-14T09:33:37;13.73;;;12.17;;
11422;SDS011;5768;51.476;7.210;2023-12-14T09:38:39;15.47;;;12.80;;
11422;SDS011;5768;51.476;7.210;2023-12-14T09:43:43;16.47;;;13.10;;
11422;SDS011;5768;51.476;7.210;2023-12-14T09:48:47;14.40;;;12.90;;
11422;SDS011;5768;51.476;7.210;2023-12-14T09:53:52;15.13;;;12.97;;
11422;SDS011;5768;51.476;7.210;2023-12-14T09:58:59;16.07;;;13.97;;
11422;SDS011;5768;51.476;7.210;2023-12-14T10:04:06;14.63;;;13.07;;
11422;SDS011;5768;51.476;7.210;2023-12-14T10:09:10;14.17;;;12.57;;
11422;SDS011;5768;51.476;7.210;2023-12-14T10:14:20;14.03;;;12.53;;
11422;SDS011;5768;51.476;7.210;2023-12-14T10:19:24;12.97;;;11.63;;
11422;SDS011;5768;51.476;7.210;2023-12-14T10:24:27;14.30;;;12.40;;
11422;SDS011;5768;51.476;7.210;2023-12-14T10:29:35;14.03;;;12.60;;
11422;SDS011;5768;51.476;7.210;2023-12-14T10:34:39;14.13;;;11.83;;
11422;SDS011;5768;51.476;7.210;2023-12-14T10:39:42;13.80;;;12.30;;
11422;SDS011;5768;51.476;7.210;2023-12-14T10:44:46;16.83;;;11.17;;
11422;SDS011;5768;51.476;7.210;2023-12-14T10:49:53;13.60;;;12.20;;
11422;SDS011;5768;51.476;7.210;2023-12-14T10:54:58;13.87;;;12.27;;
11422;SDS011;5768;51.476;7.210;2023-12-14T11:00:09;14.33;;;12.83;;
11422;SDS011;5768;51.476;7.210;2023-12-14T11:05:17;13.53;;;12.10;;
11422;SDS011;5768;51.476;7.210;2023-12-14T11:10:27;13.73;;;12.33;;
11422;SDS011;5768;51.476;7.210;2023-12-14T11:15:33;15.27;;;13.33;;
11422;SDS011;5768;51.476;7.210;2023-12-14T11:20:47;15.80;;;13.83;;
11422;SDS011;5768;51.476;7.210;2023-12-14T11:25:51;14.47;;;12.90;;
11422;SDS011;5768;51.476;7.210;2023-12-14T11:30:56;13.70;;;12.30;;
11422;SDS011;5768;51.476;7.210;2023-12-14T11:35:58;12.60;;;11.00;;
11422;SDS011;5768;51.476;7.210;2023-12-14T11:41:04;10.87;;;9.77;;
11422;SDS011;5768;51.476;7.210;2023-12-14T11:46:08;10.43;;;9.03;;
11422;SDS011;5768;51.476;7.210;2023-12-14T11:51:10;9.10;;;7.93;;
11422;SDS011;5768;51.476;7.210;2023-12-14T11:56:14;10.77;;;8.10;;
11422;SDS011;5768;51.476;7.210;2023-12-14T12:01:20;9.17;;;8.17;;
11422;SDS011;5768;51.476;7.210;2023-12-14T12:06:25;8.60;;;7.70;;
11422;SDS011;5768;51.476;7.210;2023-12-14T12:11:28;9.43;;;8.53;;
11422;SDS011;5768;51.476;7.210;2023-12-14T12:16:34;10.00;;;8.83;;
11422;SDS011;5768;51.476;7.210;2023-12-14T12:21:36;11.97;;;10.20;;
11422;SDS011;5768;51.476;7.210;2023-12-14T12:26:38;11.97;;;9.63;;
11422;SDS011;5768;51.476;7.210;2023-12-14T12:31:44;10.07;;;8.53;;
11422;SDS011;5768;51.476;7.210;2023-12-14T12:36:47;11.57;;;8.63;;
11422;SDS011;5768;51.476;7.210;2023-12-14T12:41:49;10.10;;;9.10;;
11422;SDS011;5768;51.476;7.210;2023-12-14T12:46:56;10.70;;;9.60;;
11422;SDS011;5768;51.476;7.210;2023-12-14T12:52:06;10.73;;;9.63;;
11422;SDS011;5768;51.476;7.210;2023-12-14T12:57:09;10.80;;;9.70;;
11422;SDS011;5768;51.476;7.210;2023-12-14T13:02:12;10.50;;;9.40;;
11422;SDS011;5768;51.476;7.210;2023-12-14T13:07:15;13.80;;;9.53;;
11422;SDS011;5768;51.476;7.210;2023-12-14T13:12:18;10.90;;;9.40;;
11422;SDS011;5768;51.476;7.210;2023-12-14T13:17:24;12.33;;;10.10;;
11422;SDS011;5768;51.476;7.210;2023-12-14T13:22:27;11.97;;;10.67;;
11422;SDS011;5768;51.476;7.210;2023-12-14T13:27:29;12.93;;;10.77;;
11422;SDS011;5768;51.476;7.210;2023-12-14T13:32:33;13.53;;;11.13;;
11422;SDS011;5768;51.476;7.210;2023-12-14T13:37:36;11.40;;;9.30;;
11422;SDS011;5768;51.476;7.210;2023-12-14T13:42:38;11.80;;;10.60;;
11422;SDS011;5768;51.476;7.210;2023-12-14T13:47:44;11.00;;;9.23;;
11422;SDS011;5768;51.476;7.210;2023-12-14T13:52:48;11.33;;;10.00;;
11422;SDS011;5768;51.476;7.210;2023-12-14T13:57:51;10.73;;;9.63;;
11422;SDS011;5768;51.476;7.210;2023-12-14T14:02:54;9.67;;;8.67;;
11422;SDS011;5768;51.476;7.210;2023-12-14T14:08:00;8.63;;;7.73;;
11422;SDS011;5768;51.476;7.210;2023-12-14T14:13:03;7.77;;;6.67;;
11422;SDS011;5768;51.476;7.210;2023-12-14T14:18:07;7.97;;;6.73;;
11422;SDS011;5768;51.476;7.210;2023-12-14T14:23:11;7.43;;;6.70;;
11422;SDS011;5768;51.476;7.210;2023-12-14T14:28:14;6.27;;;5.10;;
11422;SDS011;5768;51.476;7.210;2023-12-14T14:33:18;7.47;;;6.77;;
11422;SDS011;5768;51.476;7.210;2023-12-14T14:38:20;7.57;;;6.77;;
11422;SDS011;5768;51.476;7.210;2023-12-14T14:43:22;8.33;;;6.47;;
11422;SDS011;5768;51.476;7.210;2023-12-14T14:48:26;9.33;;;7.80;;
11422;SDS011;5768;51.476;7.210;2023-12-14T14:53:31;8.73;;;7.57;;
11422;SDS011;5768;51.476;7.210;2023-12-14T14:58:33;8.63;;;7.73;;
11422;SDS011;5768;51.476;7.210;2023-12-14T15:03:37;10.43;;;8.97;;
11422;SDS011;5768;51.476;7.210;2023-12-14T15:08:39;9.93;;;8.93;;
11422;SDS011;5768;51.476;7.210;2023-12-14T15:13:41;10.73;;;9.00;;
11422;SDS011;5768;51.476;7.210;2023-12-14T15:18:45;10.33;;;9.33;;
11422;SDS011;5768;51.476;7.210;2023-12-14T15:23:47;10.33;;;9.23;;
11422;SDS011;5768;51.476;7.210;2023-12-14T15:28:57;12.67;;;10.13;;
11422;SDS011;5768;51.476;7.210;2023-12-14T15:34:02;10.60;;;9.50;;
11422;SDS011;5768;51.476;7.210;2023-12-14T15:39:08;11.20;;;10.00;;
11422;SDS011;5768;51.476;7.210;2023-12-14T15:44:11;11.33;;;9.73;;
11422;SDS011;5768;51.476;7.210;2023-12-14T15:49:14;10.80;;;9.50;;
11422;SDS011;5768;51.476;7.210;2023-12-14T15:54:17;11.70;;;9.97;;
11422;SDS011;5768;51.476;7.210;2023-12-14T15:59:19;13.63;;;11.00;;
11422;SDS011;5768;51.476;7.210;2023-12-14T16:04:26;10.73;;;9.27;;
11422;SDS011;5768;51.476;7.210;2023-12-14T16:09:29;11.00;;;9.50;;
11422;SDS011;5768;51.476;7.210;2023-12-14T16:14:32;11.27;;;9.80;;
11422;SDS011;5768;51.476;7.210;2023-12-14T16:19:36;10.50;;;9.50;;
11422;SDS011;5768;51.476;7.210;2023-12-14T16:24:38;9.80;;;8.87;;
11422;SDS011;5768;51.476;7.210;2023-12-14T16:29:40;9.77;;;7.87;;
11422;SDS011;5768;51.476;7.210;2023-12-14T16:34:44;9.10;;;8.10;;
11422;SDS011;5768;51.476;7.210;2023-12-14T16:39:46;10.27;;;9.23;;
11422;SDS011;5768;51.476;7.210;2023-12-14T16:44:49;9.93;;;8.93;;
11422;SDS011;5768;51.476;7.210;2023-12-14T16:49:52;9.97;;;8.90;;
11422;SDS011;5768;51.476;7.210;2023-12-14T16:54:55;10.70;;;8.73;;
11422;SDS011;5768;51.476;7.210;2023-12-14T16:59:57;10.10;;;9.10;;
11422;SDS011;5768;51.476;7.210;2023-12-14T17:05:01;10.20;;;9.20;;
11422;SDS011;5768;51.476;7.210;2023-12-14T17:10:05;9.73;;;8.57;;
11422;SDS011;5768;51.476;7.210;2023-12-14T17:15:10;9.57;;;8.67;;
11422;SDS011;5768;51.476;7.210;2023-12-14T17:20:15;10.30;;;9.27;;
11422;SDS011;5768;51.476;7.210;2023-12-14T17:25:18;9.40;;;8.40;;
11422;SDS011;5768;51.476;7.210;2023-12-14T17:30:20;9.13;;;8.20;;
11422;SDS011;5768;51.476;7.210;2023-12-14T17:35:26;10.37;;;8.97;;
11422;SDS011;5768;51.476;7.210;2023-12-14T17:40:29;9.83;;;7.60;;
11422;SDS011;5768;51.476;7.210;2023-12-14T17:45:32;10.33;;;9.23;;
11422;SDS011;5768;51.476;7.210;2023-12-14T17:50:36;10.73;;;9.27;;
11422;SDS011;5768;51.476;7.210;2023-12-14T17:55:38;9.77;;;8.77;;
11422;SDS011;5768;51.476;7.210;2023-12-14T18:00:41;10.90;;;9.30;;
11422;SDS011;5768;51.476;7.210;2023-12-14T18:05:54;10.47;;;9.37;;
11422;SDS011;5768;51.476;7.210;2023-12-14T18:10:56;11.13;;;9.17;;
11422;SDS011;5768;51.476;7.210;2023-12-14T18:15:59;9.73;;;8.70;;
11422;SDS011;5768;51.476;7.210;2023-12-14T18:21:04;10.73;;;9.03;;
11422;SDS011;5768;51.476;7.210;2023-12-14T18:26:06;9.77;;;8.13;;
11422;SDS011;5768;51.476;7.210;2023-12-14T18:31:11;11.53;;;9.70;;
11422;SDS011;5768;51.476;7.210;2023-12-14T18:36:15;10.47;;;9.37;;
11422;SDS011;5768;51.476;7.210;2023-12-14T18:41:18;13.53;;;10.07;;
11422;SDS011;5768;51.476;7.210;2023-12-14T18:46:20;10.93;;;9.37;;
11422;SDS011;5768;51.476;7.210;2023-12-14T18:51:24;13.23;;;10.70;;
11422;SDS011;5768;51.476;7.210;2023-12-14T18:56:26;12.20;;;10.20;;
11422;SDS011;5768;51.476;7.210;2023-12-14T19:01:29;13.43;;;10.73;;
11422;SDS011;5768;51.476;7.210;2023-12-14T19:06:33;12.57;;;11.13;;
11422;SDS011;5768;51.476;7.210;2023-12-14T19:11:35;14.23;;;11.17;;
11422;SDS011;5768;51.476;7.210;2023-12-14T19:16:37;16.03;;;11.90;;
11422;SDS011;5768;51.476;7.210;2023-12-14T19:21:41;12.70;;;11.07;;
11422;SDS011;5768;51.476;7.210;2023-12-14T19:26:47;16.43;;;11.73;;
11422;SDS011;5768;51.476;7.210;2023-12-14T19:31:53;16.53;;;12.93;;
11422;SDS011;5768;51.476;7.210;2023-12-14T19:36:57;15.87;;;12.60;;
11422;SDS011;5768;51.476;7.210;2023-12-14T19:41:59;16.90;;;12.97;;
11422;SDS011;5768;51.476;7.210;2023-12-14T19:47:03;17.87;;;12.90;;
11422;SDS011;5768;51.476;7.210;2023-12-14T19:52:07;16.30;;;12.50;;
11422;SDS011;5768;51.476;7.210;2023-12-14T19:57:10;16.73;;;12.27;;
11422;SDS011;5768;51.476;7.210;2023-12-14T20:02:13;16.40;;;12.87;;
11422;SDS011;5768;51.476;7.210;2023-12-14T20:07:17;16.27;;;12.70;;
11422;SDS011;5768;51.476;7.210;2023-12-14T20:12:19;15.80;;;13.03;;
11422;SDS011;5768;51.476;7.210;2023-12-14T20:17:23;14.73;;;12.60;;
11422;SDS011;5768;51.476;7.210;2023-12-14T20:22:26;15.23;;;13.40;;
11422;SDS011;5768;51.476;7.210;2023-12-14T20:27:32;16.63;;;14.00;;
11422;SDS011;5768;51.476;7.210;2023-12-14T20:32:34;16.13;;;13.63;;
11422;SDS011;5768;51.476;7.210;2023-12-14T20:37:38;15.73;;;13.47;;
11422;SDS011;5768;51.476;7.210;2023-12-14T20:42:47;15.83;;;13.17;;
11422;SDS011;5768;51.476;7.210;2023-12-14T20:47:50;15.57;;;13.30;;
11422;SDS011;5768;51.476;7.210;2023-12-14T20:52:53;16.23;;;13.57;;
11422;SDS011;5768;51.476;7.210;2023-12-14T20:57:56;16.13;;;12.90;;
11422;SDS011;5768;51.476;7.210;2023-12-14T21:02:58;16.77;;;13.90;;
11422;SDS011;5768;51.476;7.210;2023-12-14T21:08:03;15.70;;;13.43;;
11422;SDS011;5768;51.476;7.210;2023-12-14T21:13:05;15.17;;;13.33;;
11422;SDS011;5768;51.476;7.210;2023-12-14T21:18:07;16.97;;;14.37;;
11422;SDS011;5768;51.476;7.210;2023-12-14T21:23:11;16.87;;;14.10;;
11422;SDS011;5768;51.476;7.210;2023-12-14T21:28:13;15.77;;;13.93;;
11422;SDS011;5768;51.476;7.210;2023-12-14T21:33:16;16.63;;;14.00;;
11422;SDS011;5768;51.476;7.210;2023-12-14T21:38:20;17.60;;;13.80;;
11422;SDS011;5768;51.476;7.210;2023-12-14T21:43:22;16.67;;;13.77;;
11422;SDS011;5768;51.476;7.210;2023-12-14T21:48:25;15.30;;;13.70;;
11422;SDS011;5768;51.476;7.210;2023-12-14T21:53:28;15.47;;;13.37;;
11422;SDS011;5768;51.476;7.210;2023-12-14T21:58:31;15.70;;;13.60;;
11422;SDS011;5768;51.476;7.210;2023-12-14T22:03:33;16.50;;;13.03;;
11422;SDS011;5768;51.476;7.210;2023-12-14T22:08:37;17.10;;;14.07;;
11422;SDS011;5768;51.476;7.210;2023-12-14T22:13:39;17.90;;;14.67;;
11422;SDS011;5768;51.476;7.210;2023-12-14T22:18:41;16.07;;;14.37;;
11422;SDS011;5768;51.476;7.210;2023-12-14T22:23:45;16.63;;;14.43;;
11422;SDS011;5768;51.476;7.210;2023-12-14T22:28:47;17.53;;;13.90;;
11422;SDS011;5768;51.476;7.210;2023-12-14T22:33:52;18.10;;;14.10;;
11422;SDS011;5768;51.476;7.210;2023-12-14T22:38:59;14.90;;;13.30;;
11422;SDS011;5768;51.476;7.210;2023-12-14T22:44:01;17.00;;;13.47;;
11422;SDS011;5768;51.476;7.210;2023-12-14T22:49:04;18.40;;;14.43;;
11422;SDS011;5768;51.476;7.210;2023-12-14T22:54:08;18.20;;;14.40;;
11422;SDS011;5768;51.476;7.210;2023-12-14T22:59:13;17.93;;;14.17;;
11422;SDS011;5768;51.476;7.210;2023-12-14T23:04:16;16.83;;;14.13;;
11422;SDS011;5768;51.476;7.210;2023-12-14T23:09:19;16.23;;;14.27;;
11422;SDS011;5768;51.476;7.210;2023-12-14T23:14:22;18.07;;;14.67;;
11422;SDS011;5768;51.476;7.210;2023-12-14T23:19:24;19.00;;;14.50;;
11422;SDS011;5768;51.476;7.210;2023-12-14T23:24:28;17.40;;;14.63;;
11422;SDS011;5768;51.476;7.210;2023-12-14T23:29:30;18.30;;;15.37;;
11422;SDS011;5768;51.476;7.210;2023-12-14T23:34:33;18.30;;;13.93;;
11422;SDS011;5768;51.476;7.210;2023-12-14T23:39:40;19.77;;;13.90;;
11422;SDS011;5768;51.476;7.210;2023-12-14T23:44:42;17.37;;;14.33;;
11422;SDS011;5768;51.476;7.210;2023-12-14T23:49:44;21.10;;;15.13;;
11422;SDS011;5768;51.476;7.210;2023-12-14T23:54:48;19.30;;;15.60;;
11422;SDS011;5768;51.476;7.210;2023-12-14T23:59:51;20.93;;;15.27;;
